Time;durP1;ratioP1;P1;durP2;ratioP2;P2;SDS_P1;SDS_P2;PMS_P1;PMS_P2;Temp;Humidity;BMP_temperature;BMP_pressure;BME280_temperature;BME280_humidity;BME280_pressure;Samples;Min_cycle;Max_cycle;Signal;HPM_P1;HPM_P2
2023/04/30 00:01:53;;;;;;;6.18;2.97;;;;;;;;;;5050010;28;20557;-68
2023/04/30 00:04:19;;;;;;;14.48;3.13;;;;;;;;;;5049776;28;20130;-68
2023/04/30 00:06:45;;;;;;;9.00;3.08;;;;;;;;;;5049881;28;20051;-69
2023/04/30 00:09:11;;;;;;;11.27;3.60;;;;;;;;;;5049595;28;20040;-68
2023/04/30 00:11:37;;;;;;;5.97;2.50;;;;;;;;;;5049477;28;20123;-69
2023/04/30 00:14:03;;;;;;;9.45;3.13;;;9.20;99.90;;;;;;5050270;28;20399;-68
2023/04/30 00:16:29;;;;;;;6.18;2.78;;;9.00;99.90;;;;;;5050096;28;20037;-68
2023/04/30 00:18:54;;;;;;;7.38;2.95;;;9.20;99.90;;;;;;5049754;28;20131;-69
2023/04/30 00:21:20;;;;;;;13.32;4.40;;;;;;;;;;5051032;28;20041;-68
2023/04/30 00:23:46;;;;;;;12.10;3.28;;;;;;;;;;5049594;28;20563;-68
2023/04/30 00:26:12;;;;;;;7.97;3.25;;;9.00;99.90;;;;;;5049650;28;20053;-68
2023/04/30 00:28:38;;;;;;;12.68;4.47;;;;;;;;;;5049519;28;20041;-68
2023/04/30 00:31:05;;;;;;;10.50;3.17;;;9.10;99.90;;;;;;5049792;28;20048;-69
2023/04/30 00:33:31;;;;;;;9.70;3.53;;;8.90;99.90;;;;;;5053161;28;20045;-70
2023/04/30 00:35:57;;;;;;;7.72;3.50;;;;;;;;;;5034613;28;20055;-68
2023/04/30 00:38:23;;;;;;;7.38;3.88;;;;;;;;;;5053062;28;20123;-67
2023/04/30 00:40:49;;;;;;;12.68;3.83;;;;;;;;;;5053141;28;20130;-68
2023/04/30 00:43:15;;;;;;;12.65;3.47;;;8.90;99.90;;;;;;5036478;28;20083;-68
2023/04/30 00:45:40;;;;;;;9.13;3.50;;;8.80;99.90;;;;;;5036423;28;20399;-68
2023/04/30 00:48:06;;;;;;;8.40;3.25;;;8.80;99.90;;;;;;5052753;28;20041;-68
2023/04/30 00:50:37;;;;;;;6.25;3.28;;;8.80;99.90;;;;;;5052759;28;20048;-68
2023/04/30 00:53:03;;;;;;;15.70;4.53;;;9.00;99.90;;;;;;5052627;28;20163;-69
2023/04/30 00:55:29;;;;;;;7.88;4.85;;;8.70;99.90;;;;;;5052522;28;20124;-68
2023/04/30 00:57:55;;;;;;;8.85;3.88;;;;;;;;;;5054064;28;20146;-68
2023/04/30 01:00:21;;;;;;;10.90;4.50;;;8.90;99.90;;;;;;5052445;28;20041;-68
2023/04/30 01:02:48;;;;;;;8.55;3.60;;;8.80;99.90;;;;;;5052571;28;20044;-68
2023/04/30 01:05:13;;;;;;;8.77;3.28;;;8.80;99.90;;;;;;5048554;28;20045;-68
2023/04/30 01:07:43;;;;;;;10.95;4.22;;;8.80;99.90;;;;;;5032939;28;20053;-68
2023/04/30 01:10:11;;;;;;;10.80;3.67;;;8.90;99.90;;;;;;5032722;28;20038;-68
2023/04/30 01:12:56;;;;;;;10.35;4.20;;;8.60;99.90;;;;;;5032836;28;20511;-68
2023/04/30 01:15:31;;;;;;;16.40;3.85;;;8.70;99.90;;;;;;5032978;28;20103;-68
2023/04/30 01:18:13;;;;;;;11.65;4.22;;;8.80;99.90;;;;;;5032619;28;20042;-68
2023/04/30 01:21:01;;;;;;;9.27;3.42;;;8.90;99.90;;;;;;5033671;28;20069;-68
2023/04/30 01:24:04;;;;;;;10.52;4.00;;;8.80;99.90;;;;;;5032520;28;20037;-69
2023/04/30 01:27:05;;;;;;;9.50;3.70;;;8.70;99.90;;;;;;5032734;28;20045;-69
2023/04/30 01:29:32;;;;;;;9.40;4.35;;;;;;;;;;5032642;28;20095;-68
2023/04/30 01:31:58;;;;;;;8.73;3.78;;;;;;;;;;5032697;28;20041;-68
2023/04/30 01:34:24;;;;;;;8.07;3.60;;;;;;;;;;5032174;28;20033;-68
2023/04/30 01:37:08;;;;;;;9.57;3.47;;;9.00;99.90;;;;;;5015449;28;20059;-68
2023/04/30 01:39:58;;;;;;;9.95;4.07;;;9.00;99.90;;;;;;5031972;28;20099;-68
2023/04/30 01:43:04;;;;;;;8.45;3.50;;;9.00;99.90;;;;;;5032777;28;20045;-68
2023/04/30 01:45:45;;;;;;;7.07;3.38;;;9.00;99.90;;;;;;5032546;28;20495;-68
2023/04/30 01:48:17;;;;;;;10.90;3.38;;;9.00;99.90;;;;;;5015650;28;20045;-68
2023/04/30 01:50:54;;;;;;;9.73;3.85;;;9.30;99.90;;;;;;5031723;28;20046;-68
2023/04/30 01:53:24;;;;;;;10.85;3.90;;;9.20;99.90;;;;;;5032123;28;20071;-69
2023/04/30 01:56:02;;;;;;;11.60;4.60;;;9.20;99.90;;;;;;5031724;28;20045;-68
2023/04/30 01:58:29;;;;;;;9.93;3.65;;;9.20;99.90;;;;;;5031725;28;20118;-68
2023/04/30 02:00:55;;;;;;;9.43;3.40;;;;;;;;;;5031717;28;20128;-68
2023/04/30 02:03:21;;;;;;;12.32;3.42;;;;;;;;;;5031654;28;20342;-68
2023/04/30 02:05:47;;;;;;;6.93;3.42;;;9.30;99.90;;;;;;5031578;28;20128;-68
2023/04/30 02:08:13;;;;;;;12.70;3.53;;;9.10;99.90;;;;;;5031645;28;20488;-68
2023/04/30 02:10:38;;;;;;;10.15;3.22;;;9.20;99.90;;;;;;5031231;28;20040;-68
2023/04/30 02:13:04;;;;;;;6.10;3.47;;;;;;;;;;5031374;28;20087;-68
2023/04/30 02:15:30;;;;;;;9.32;3.28;;;9.30;99.90;;;;;;5031568;28;20041;-68
2023/04/30 02:17:56;;;;;;;8.00;3.17;;;;;;;;;;5032668;28;20041;-68
2023/04/30 02:20:21;;;;;;;9.15;3.00;;;9.20;99.90;;;;;;5031136;28;20042;-68
2023/04/30 02:22:47;;;;;;;7.72;2.72;;;9.20;99.90;;;;;;5031092;28;20568;-68
2023/04/30 02:25:13;;;;;;;6.60;2.95;;;;;;;;;;5031256;28;20037;-68
2023/04/30 02:27:39;;;;;;;12.50;2.90;;;9.30;99.90;;;;;;5031297;28;20049;-68
2023/04/30 02:30:05;;;;;;;8.23;3.28;;;9.10;99.90;;;;;;5031156;28;20053;-69
2023/04/30 02:32:31;;;;;;;8.18;2.90;;;;;;;;;;5031006;28;20495;-68
2023/04/30 02:34:57;;;;;;;6.35;2.95;;;9.10;99.90;;;;;;5031388;28;20371;-68
2023/04/30 02:37:23;;;;;;;5.50;2.38;;;;;;;;;;5014546;28;20086;-68
2023/04/30 02:39:49;;;;;;;6.45;3.20;;;;;;;;;;5030730;28;20083;-68
2023/04/30 02:42:15;;;;;;;9.57;3.45;;;;;;;;;;5031163;28;20077;-68
2023/04/30 02:44:41;;;;;;;9.48;3.60;;;9.30;99.90;;;;;;5031248;28;20401;-68
2023/04/30 02:47:07;;;;;;;13.02;2.75;;;9.10;99.90;;;;;;5030972;28;20079;-68
2023/04/30 02:49:32;;;;;;;12.27;3.50;;;9.10;99.90;;;;;;5030427;28;20152;-68
2023/04/30 02:51:58;;;;;;;8.40;3.10;;;;;;;;;;5030756;28;20419;-68
2023/04/30 02:54:24;;;;;;;8.95;2.60;;;;;;;;;;5030732;28;20041;-68
2023/04/30 02:56:50;;;;;;;9.30;2.83;;;;;;;;;;5030622;28;20042;-68
2023/04/30 02:59:16;;;;;;;13.00;3.53;;;;;;;;;;5030777;28;20039;-68
2023/04/30 03:01:42;;;;;;;7.38;2.70;;;;;;;;;;5015115;28;20466;-68
2023/04/30 03:04:08;;;;;;;12.10;4.20;;;;;;;;;;5030906;28;20041;-68
2023/04/30 03:06:34;;;;;;;10.70;3.42;;;9.10;99.90;;;;;;5013982;28;20553;-69
2023/04/30 03:09:00;;;;;;;9.35;3.75;;;9.20;99.90;;;;;;5030266;28;20076;-68
2023/04/30 03:11:26;;;;;;;6.75;2.67;;;9.00;99.90;;;;;;5013972;28;20050;-68
2023/04/30 03:13:51;;;;;;;12.82;3.17;;;8.90;99.90;;;;;;5030824;28;20033;-68
2023/04/30 03:16:18;;;;;;;11.32;4.07;;;8.80;99.90;;;;;;5030352;28;20042;-68
2023/04/30 03:18:45;;;;;;;11.18;2.88;;;9.00;99.90;;;;;;5030049;28;20037;-69
2023/04/30 03:21:10;;;;;;;9.05;3.30;;;9.00;99.90;;;;;;5013752;28;20037;-68
2023/04/30 03:23:36;;;;;;;6.57;2.65;;;9.00;99.90;;;;;;5030233;28;20120;-68
2023/04/30 03:26:02;;;;;;;10.00;3.60;;;;;;;;;;5030371;28;20548;-68
2023/04/30 03:28:28;;;;;;;9.23;2.63;;;;;;;;;;5030003;28;20120;-68
2023/04/30 03:30:54;;;;;;;11.48;4.15;;;;;;;;;;5030162;28;20567;-68
2023/04/30 03:33:19;;;;;;;11.48;3.85;;;8.80;99.90;;;;;;5030326;28;20106;-68
2023/04/30 03:35:45;;;;;;;6.88;2.95;;;8.70;99.90;;;;;;5030167;28;20044;-69
2023/04/30 03:38:11;;;;;;;7.82;2.80;;;8.80;99.90;;;;;;5013867;28;20033;-69
2023/04/30 03:40:36;;;;;;;10.07;3.80;;;8.70;99.90;;;;;;5029833;28;20096;-68
2023/04/30 03:43:02;;;;;;;10.30;3.20;;;;;;;;;;5013986;28;20439;-68
2023/04/30 03:45:28;;;;;;;9.18;3.90;;;;;;;;;;5030040;28;20046;-68
2023/04/30 03:47:54;;;;;;;9.25;3.72;;;;;;;;;;5030209;28;20064;-69
2023/04/30 03:50:20;;;;;;;11.73;4.38;;;8.50;99.90;;;;;;5029640;28;20037;-68
2023/04/30 03:52:46;;;;;;;11.30;3.90;;;8.60;99.90;;;;;;5030233;28;20045;-68
2023/04/30 03:55:11;;;;;;;14.70;3.53;;;8.40;99.90;;;;;;5030103;28;20120;-68
2023/04/30 03:57:39;;;;;;;17.00;4.38;;;8.30;99.90;;;;;;5013765;28;20483;-69
2023/04/30 04:00:09;;;;;;;10.02;3.72;;;8.50;99.90;;;;;;5029926;28;20041;-68
2023/04/30 04:02:35;;;;;;;12.63;5.32;;;;;;;;;;5029900;28;20575;-69
2023/04/30 04:05:02;;;;;;;9.93;5.35;;;;;;;;;;5031107;28;20052;-69
2023/04/30 04:07:28;;;;;;;11.25;4.60;;;;;;;;;;5029789;28;20045;-68
2023/04/30 04:09:54;;;;;;;8.30;5.15;;;;;;;;;;5029603;28;20042;-68
2023/04/30 04:12:20;;;;;;;10.73;4.32;;;;;;;;;;5034868;28;20434;-68
2023/04/30 04:14:46;;;;;;;9.05;3.80;;;;;;;;;;5033748;28;20033;-68
2023/04/30 04:17:12;;;;;;;14.80;3.63;;;8.30;99.90;;;;;;5033762;28;20547;-68
2023/04/30 04:19:39;;;;;;;5.97;3.22;;;;;;;;;;5033909;28;20045;-68
2023/04/30 04:22:05;;;;;;;9.23;4.30;;;8.20;99.90;;;;;;5033692;28;20091;-68
2023/04/30 04:24:31;;;;;;;8.70;3.30;;;8.50;99.90;;;;;;5033565;28;20108;-68
2023/04/30 04:26:57;;;;;;;11.35;3.65;;;;;;;;;;5017054;28;20490;-68
2023/04/30 04:29:23;;;;;;;11.20;4.50;;;;;;;;;;5033458;28;20128;-69
2023/04/30 04:31:49;;;;;;;6.78;3.65;;;;;;;;;;5016915;28;20720;-69
2023/04/30 04:34:15;;;;;;;9.77;3.83;;;8.20;99.90;;;;;;5033397;28;20041;-68
2023/04/30 04:36:41;;;;;;;10.48;4.05;;;;;;;;;;5034794;28;20395;-68
2023/04/30 04:39:07;;;;;;;9.02;4.03;;;;;;;;;;5033128;28;20073;-68
2023/04/30 04:41:34;;;;;;;9.75;4.38;;;8.40;99.90;;;;;;5033375;28;20088;-68
2023/04/30 04:44:02;;;;;;;8.90;3.58;;;;;;;;;;5016558;28;20092;-68
2023/04/30 04:46:28;;;;;;;7.85;3.33;;;;;;;;;;5033362;28;20041;-67
2023/04/30 04:48:54;;;;;;;8.63;3.33;;;8.50;99.90;;;;;;5033199;28;20524;-68
2023/04/30 04:51:20;;;;;;;13.73;3.65;;;8.60;99.90;;;;;;5032940;28;20120;-68
2023/04/30 04:53:46;;;;;;;9.70;3.03;;;;;;;;;;5032956;28;20120;-68
2023/04/30 04:56:12;;;;;;;12.75;3.47;;;;;;;;;;5033166;28;20180;-68
2023/04/30 04:58:41;;;;;;;5.78;2.67;;;8.80;99.90;;;;;;5032622;28;20559;-69
2023/04/30 05:01:08;;;;;;;12.02;3.40;;;8.60;99.90;;;;;;5016299;28;20049;-68
2023/04/30 05:03:35;;;;;;;14.18;3.83;;;8.70;99.90;;;;;;5016526;28;20394;-68
2023/04/30 05:06:04;;;;;;;10.90;3.10;;;8.90;99.90;;;;;;5032795;28;20045;-68
2023/04/30 05:08:31;;;;;;;15.15;3.42;;;;;;;;;;5032661;28;20037;-68
2023/04/30 05:10:57;;;;;;;10.75;3.47;;;8.90;99.90;;;;;;5016139;28;20045;-68
2023/04/30 05:13:23;;;;;;;9.45;3.00;;;;;;;;;;5032717;28;20046;-68
2023/04/30 05:15:50;;;;;;;12.15;3.80;;;9.00;99.90;;;;;;5032466;28;20039;-68
2023/04/30 05:18:16;;;;;;;8.43;3.20;;;8.90;99.90;;;;;;5032530;28;20505;-68
2023/04/30 05:20:42;;;;;;;5.43;2.90;;;9.00;99.90;;;;;;5032572;28;20052;-68
2023/04/30 05:23:07;;;;;;;11.15;3.08;;;;;;;;;;5031265;28;20514;-69
2023/04/30 05:25:35;;;;;;;9.98;3.67;;;9.40;99.90;;;;;;5015909;28;20076;-68
2023/04/30 05:28:00;;;;;;;10.02;4.13;;;9.40;99.90;;;;;;5032458;28;20095;-69
2023/04/30 05:30:26;;;;;;;8.65;3.10;;;9.20;99.90;;;;;;5032118;28;20041;-68
2023/04/30 05:32:52;;;;;;;8.57;3.35;;;;;;;;;;5032237;28;20116;-68
2023/04/30 05:35:19;;;;;;;12.57;3.63;;;9.30;99.90;;;;;;5032247;28;20037;-68
2023/04/30 05:37:45;;;;;;;9.52;3.25;;;;;;;;;;5032296;28;20061;-68
2023/04/30 05:40:11;;;;;;;12.35;3.60;;;9.40;99.90;;;;;;5032129;28;20041;-68
2023/04/30 05:42:39;;;;;;;24.27;4.00;;;9.40;99.90;;;;;;5031973;28;20048;-68
2023/04/30 05:45:06;;;;;;;8.85;3.13;;;9.50;99.90;;;;;;5032049;28;20521;-68
2023/04/30 05:47:31;;;;;;;15.00;4.82;;;9.60;99.90;;;;;;5025057;28;20515;-68
2023/04/30 05:49:57;;;;;;;11.52;4.13;;;9.50;99.90;;;;;;5031616;28;20081;-68
2023/04/30 05:52:23;;;;;;;6.70;3.00;;;;;;;;;;5006939;28;20506;-68
2023/04/30 05:54:49;;;;;;;15.52;3.15;;;;;;;;;;4996252;28;20042;-68
2023/04/30 05:57:15;;;;;;;7.82;2.92;;;;;;;;;;5013141;28;20043;-69
2023/04/30 05:59:41;;;;;;;8.77;2.97;;;;;;;;;;5014008;28;20067;-68
2023/04/30 06:02:07;;;;;;;11.88;3.35;;;;;;;;;;5012035;28;20515;-68
2023/04/30 06:04:33;;;;;;;9.75;2.90;;;9.90;99.90;;;;;;5022006;28;20045;-68
2023/04/30 06:06:58;;;;;;;17.95;4.43;;;9.90;99.90;;;;;;5031797;28;20037;-68
2023/04/30 06:09:24;;;;;;;7.93;3.00;;;10.00;99.90;;;;;;5031985;28;20087;-68
2023/04/30 06:11:50;;;;;;;4.50;2.70;;;10.00;99.90;;;;;;5020626;28;20034;-68
2023/04/30 06:14:17;;;;;;;15.23;2.90;;;9.90;99.90;;;;;;5011209;28;20100;-68
2023/04/30 06:16:45;;;;;;;9.70;3.03;;;9.80;99.90;;;;;;5026019;28;20044;-68
2023/04/30 06:19:11;;;;;;;12.23;3.33;;;9.90;99.90;;;;;;5014552;28;20041;-68
2023/04/30 06:21:38;;;;;;;11.07;3.22;;;;;;;;;;5032199;28;20033;-69
2023/04/30 06:24:05;;;;;;;9.30;3.08;;;;;;;;;;5019583;28;20060;-68
2023/04/30 06:26:31;;;;;;;7.30;3.08;;;10.00;99.90;;;;;;5021185;28;20076;-68
2023/04/30 06:28:56;;;;;;;8.25;3.58;;;10.00;99.90;;;;;;5031656;28;20399;-68
2023/04/30 06:31:23;;;;;;;8.90;3.00;;;;;;;;;;5032044;28;20037;-68
2023/04/30 06:33:49;;;;;;;11.63;3.90;;;10.10;99.90;;;;;;5031271;28;20041;-68
2023/04/30 06:36:15;;;;;;;10.43;4.78;;;;;;;;;;5021886;28;20041;-68
2023/04/30 06:38:42;;;;;;;9.75;3.10;;;;;;;;;;5015633;28;20037;-68
2023/04/30 06:41:07;;;;;;;13.40;3.40;;;10.10;99.90;;;;;;5009012;28;20044;-68
2023/04/30 06:43:34;;;;;;;9.65;3.63;;;;;;;;;;5017841;28;20033;-68
2023/04/30 06:46:00;;;;;;;15.50;4.30;;;;;;;;;;5028112;28;20506;-68
2023/04/30 06:48:26;;;;;;;9.77;3.70;;;;;;;;;;5016187;28;20060;-67
2023/04/30 06:50:52;;;;;;;16.38;3.72;;;;;;;;;;5012153;28;20088;-68
2023/04/30 06:53:18;;;;;;;10.00;3.47;;;;;;;;;;5012547;28;20122;-68
2023/04/30 06:55:47;;;;;;;7.72;3.50;;;10.30;99.90;;;;;;5021052;28;20038;-69
2023/04/30 06:58:13;;;;;;;12.65;4.22;;;10.40;99.90;;;;;;5011602;28;20034;-68
2023/04/30 07:00:39;;;;;;;11.88;3.75;;;10.40;99.90;;;;;;5021863;28;20099;-68
2023/04/30 07:03:05;;;;;;;12.57;4.35;;;10.50;99.90;;;;;;5027512;28;20498;-68
2023/04/30 07:05:31;;;;;;;13.00;3.72;;;;;;;;;;5029979;28;20041;-68
2023/04/30 07:07:59;;;;;;;12.60;3.65;;;10.50;99.90;;;;;;5018700;28;20407;-69
2023/04/30 07:10:25;;;;;;;10.13;3.28;;;;;;;;;;5009653;28;20057;-69
2023/04/30 07:12:51;;;;;;;7.22;3.08;;;;;;;;;;5008908;28;20167;-68
2023/04/30 07:15:17;;;;;;;9.77;3.72;;;;;;;;;;5030326;28;20076;-68
2023/04/30 07:17:43;;;;;;;16.15;3.33;;;;;;;;;;5023789;28;20121;-66
2023/04/30 07:20:09;;;;;;;9.43;2.85;;;;;;;;;;5023290;28;20044;-68
2023/04/30 07:22:36;;;;;;;12.57;3.60;;;;;;;;;;5023634;28;20073;-68
2023/04/30 07:25:02;;;;;;;10.82;3.42;;;;;;;;;;5023616;28;20045;-68
2023/04/30 07:27:28;;;;;;;8.90;3.92;;;;;;;;;;5022829;28;20048;-65
2023/04/30 07:29:54;;;;;;;9.10;3.08;;;11.20;99.90;;;;;;5020630;28;20046;-68
2023/04/30 07:32:20;;;;;;;11.30;3.97;;;;;;;;;;5025308;28;20038;-67
2023/04/30 07:34:46;;;;;;;11.68;3.10;;;;;;;;;;5015699;28;20778;-66
2023/04/30 07:37:12;;;;;;;8.15;3.30;;;;;;;;;;5022380;28;20041;-67
2023/04/30 07:39:38;;;;;;;6.85;2.70;;;;;;;;;;5019625;28;20052;-68
2023/04/30 07:42:05;;;;;;;9.40;2.95;;;;;;;;;;5015239;28;20546;-67
2023/04/30 07:44:31;;;;;;;17.70;3.92;;;;;;;;;;5002839;28;20033;-67
2023/04/30 07:46:57;;;;;;;13.65;3.60;;;;;;;;;;5019989;28;20549;-68
2023/04/30 07:49:23;;;;;;;9.75;3.80;;;;;;;;;;5030419;28;20049;-67
2023/04/30 07:51:49;;;;;;;10.05;3.72;;;;;;;;;;5021557;28;20076;-68
2023/04/30 07:54:15;;;;;;;9.85;3.42;;;;;;;;;;5019924;28;20056;-65
2023/04/30 07:56:41;;;;;;;10.68;3.58;;;;;;;;;;5033848;22;20065;-69
2023/04/30 07:59:07;;;;;;;15.57;4.47;;;;;;;;;;4981369;28;20035;-68
2023/04/30 08:01:33;;;;;;;8.07;3.03;;;11.60;99.90;;;;;;4973377;28;20054;-68
2023/04/30 08:03:59;;;;;;;8.10;3.03;;;;;;;;;;4974887;28;20110;-68
2023/04/30 08:06:26;;;;;;;9.95;2.78;;;11.80;99.90;;;;;;4974295;28;20049;-68
2023/04/30 08:08:52;;;;;;;12.98;3.58;;;;;;;;;;4973505;28;20144;-69
2023/04/30 08:11:18;;;;;;;6.88;3.08;;;;;;;;;;4974230;28;20047;-69
2023/04/30 08:13:45;;;;;;;13.55;4.00;;;;;;;;;;4958337;28;20598;-72
2023/04/30 08:16:11;;;;;;;8.73;3.15;;;12.30;99.90;;;;;;4975005;28;20181;-70
2023/04/30 08:18:43;;;;;;;8.40;3.17;;;12.60;99.90;;;;;;4972992;28;20118;-70
2023/04/30 08:21:09;;;;;;;9.13;3.22;;;12.40;99.90;;;;;;4974566;28;20427;-70
2023/04/30 08:23:35;;;;;;;5.75;2.60;;;12.20;99.90;;;;;;4974125;28;20038;-70
2023/04/30 08:26:00;;;;;;;8.77;3.22;;;;;;;;;;4974807;28;20046;-71
2023/04/30 08:28:26;;;;;;;6.50;2.55;;;;;;;;;;4974389;28;20038;-67
2023/04/30 08:30:52;;;;;;;11.23;2.97;;;12.50;99.90;;;;;;4974363;28;20047;-68
2023/04/30 08:33:18;;;;;;;8.95;3.55;;;;;;;;;;4972802;28;20120;-68
2023/04/30 08:35:44;;;;;;;12.52;4.30;;;12.90;99.90;;;;;;4971292;28;20050;-68
2023/04/30 08:38:10;;;;;;;7.07;3.20;;;12.90;99.90;;;;;;4982007;28;20073;-67
2023/04/30 08:40:36;;;;;;;9.68;3.00;;;;;;;;;;4971658;28;20416;-69
2023/04/30 08:43:07;;;;;;;7.03;2.95;;;12.80;99.90;;;;;;4972499;28;20049;-69
2023/04/30 08:45:34;;;;;;;7.95;2.63;;;13.00;99.90;;;;;;4957787;28;20039;-69
2023/04/30 08:48:00;;;;;;;11.55;2.90;;;;;;;;;;4972118;28;20047;-68
2023/04/30 08:50:27;;;;;;;13.35;2.78;;;13.20;99.90;;;;;;4975491;28;20687;-69
2023/04/30 08:52:52;;;;;;;8.25;2.83;;;13.20;99.90;;;;;;4974164;28;20404;-69
2023/04/30 08:55:18;;;;;;;10.70;3.70;;;;;;;;;;4973902;28;20054;-68
2023/04/30 08:57:44;;;;;;;10.65;3.05;;;;;;;;;;4973727;28;20042;-70
2023/04/30 09:00:11;;;;;;;13.60;3.83;;;14.00;99.90;;;;;;4973136;28;20046;-68
2023/04/30 09:02:41;;;;;;;9.57;3.20;;;13.60;99.90;;;;;;4974904;28;20525;-68
2023/04/30 09:05:10;;;;;;;13.75;3.60;;;13.30;99.90;;;;;;4973652;28;20043;-69
2023/04/30 09:07:40;;;;;;;7.45;3.05;;;13.50;99.90;;;;;;4973634;28;20042;-68
2023/04/30 09:10:14;;;;;;;10.18;4.03;;;13.50;99.90;;;;;;4973772;28;20089;-68
2023/04/30 09:12:42;;;;;;;7.60;2.75;;;13.80;99.90;;;;;;4974156;28;20043;-68
2023/04/30 09:15:08;;;;;;;9.63;3.33;;;13.60;99.90;;;;;;4973719;28;20191;-68
2023/04/30 09:17:34;;;;;;;7.78;2.75;;;13.70;99.90;;;;;;4973829;28;20043;-68
2023/04/30 09:20:07;;;;;;;5.32;2.67;;;13.70;99.90;;;;;;4973863;28;20062;-68
2023/04/30 09:22:35;;;;;;;8.90;3.45;;;13.40;99.90;;;;;;4973876;28;20053;-69
2023/04/30 09:25:00;;;;;;;9.15;2.78;;;13.80;99.90;;;;;;4973741;28;20046;-68
2023/04/30 09:27:26;;;;;;;10.05;2.60;;;13.90;99.90;;;;;;4973851;28;20034;-69
2023/04/30 09:29:52;;;;;;;5.90;2.95;;;;;;;;;;4973487;28;20100;-69
2023/04/30 09:32:18;;;;;;;9.95;3.35;;;;;;;;;;4974947;28;20140;-70
2023/04/30 09:34:44;;;;;;;5.82;2.92;;;;;;;;;;4973512;28;20133;-68
2023/04/30 09:37:10;;;;;;;11.05;3.22;;;14.20;99.90;;;;;;4973538;28;20122;-69
2023/04/30 09:39:51;;;;;;;7.22;2.95;;;14.30;99.90;;;;;;4973562;28;20403;-69
2023/04/30 09:42:18;;;;;;;10.13;3.22;;;15.70;99.90;;;;;;4973641;28;20444;-67
2023/04/30 09:44:43;;;;;;;12.55;3.22;;;14.50;99.90;;;;;;4973383;28;20039;-68
2023/04/30 09:47:19;;;;;;;11.52;3.53;;;14.50;99.90;;;;;;4957445;28;20035;-68
2023/04/30 09:49:52;;;;;;;8.65;2.88;;;14.90;99.90;;;;;;4973429;28;20038;-71
2023/04/30 09:52:19;;;;;;;7.95;2.63;;;14.90;99.90;;;;;;4973328;28;20123;-69
2023/04/30 09:54:45;;;;;;;8.52;2.30;;;14.90;99.90;;;;;;4973120;28;20291;-69
2023/04/30 09:57:13;;;;;;;5.47;2.38;;;14.70;99.90;;;;;;4973257;28;20393;-69
2023/04/30 09:59:44;;;;;;;8.27;2.80;;;15.50;99.90;;;;;;4972890;28;20039;-69
2023/04/30 10:02:16;;;;;;;9.30;3.88;;;15.00;99.90;;;;;;4974313;28;20496;-69
2023/04/30 10:04:43;;;;;;;10.45;2.78;;;15.10;99.90;;;;;;4973011;28;20046;-69
2023/04/30 10:07:15;;;;;;;7.10;2.28;;;15.00;99.90;;;;;;4972792;28;20389;-69
2023/04/30 10:09:49;;;;;;;6.32;2.47;;;15.20;99.90;;;;;;4971990;28;20049;-69
2023/04/30 10:12:33;;;;;;;6.90;2.30;;;15.10;99.90;;;;;;4972880;28;20074;-69
2023/04/30 10:15:10;;;;;;;6.25;2.58;;;15.30;99.90;;;;;;4972840;28;20085;-69
2023/04/30 10:17:39;;;;;;;6.40;2.78;;;15.10;99.90;;;;;;4973003;28;20246;-69
2023/04/30 10:20:08;;;;;;;9.52;3.05;;;15.30;99.90;;;;;;4972545;28;20046;-69
2023/04/30 10:22:34;;;;;;;8.77;2.58;;;15.40;99.90;;;;;;4972846;28;20117;-69
2023/04/30 10:25:00;;;;;;;8.10;2.33;;;;;;;;;;4973942;28;20043;-70
2023/04/30 10:27:27;;;;;;;7.43;2.80;;;;;;;;;;4956511;28;20049;-70
2023/04/30 10:29:54;;;;;;;6.30;2.28;;;15.80;99.90;;;;;;4972257;28;20043;-69
2023/04/30 10:32:21;;;;;;;6.45;2.38;;;15.60;99.90;;;;;;4972655;28;20046;-69
2023/04/30 10:35:05;;;;;;;6.00;2.30;;;15.60;99.90;;;;;;4972401;28;20086;-70
2023/04/30 10:37:42;;;;;;;6.63;2.30;;;15.60;99.90;;;;;;4972314;28;20126;-70
2023/04/30 10:40:08;;;;;;;9.25;2.20;;;15.70;99.90;;;;;;4972217;28;20053;-70
2023/04/30 10:42:35;;;;;;;4.13;1.88;;;15.50;99.90;;;;;;4972492;28;20038;-70
2023/04/30 10:45:04;;;;;;;3.17;1.80;;;15.80;99.90;;;;;;4972509;28;20104;-70
2023/04/30 10:47:30;;;;;;;6.25;2.40;;;15.80;99.90;;;;;;4972304;28;20038;-70
2023/04/30 10:50:07;;;;;;;6.70;2.60;;;15.90;99.90;;;;;;4971910;28;20050;-70
2023/04/30 10:52:34;;;;;;;8.95;2.60;;;;;;;;;;4972071;28;20043;-70
2023/04/30 10:55:04;;;;;;;4.95;2.10;;;16.20;99.90;;;;;;4955890;28;20066;-71
2023/04/30 10:57:30;;;;;;;4.60;2.30;;;15.80;99.90;;;;;;4971866;28;20046;-70
2023/04/30 11:00:13;;;;;;;3.88;1.70;;;15.70;99.90;;;;;;4955765;28;20042;-70
2023/04/30 11:02:40;;;;;;;4.07;1.80;;;15.80;99.90;;;;;;4955939;28;20046;-69
2023/04/30 11:05:08;;;;;;;4.30;1.60;;;15.90;99.90;;;;;;4971992;28;20377;-69
2023/04/30 11:07:35;;;;;;;2.35;1.48;;;;;;;;;;4971752;28;20093;-70
2023/04/30 11:10:01;;;;;;;6.40;1.58;;;16.20;99.90;;;;;;4971601;28;20531;-69
2023/04/30 11:12:27;;;;;;;4.35;1.60;;;16.40;99.90;;;;;;4971895;28;20031;-69
2023/04/30 11:15:04;;;;;;;2.65;1.70;;;16.50;99.90;;;;;;4972012;28;20046;-70
2023/04/30 11:17:31;;;;;;;4.63;1.98;;;16.40;99.90;;;;;;4955724;28;20113;-69
2023/04/30 11:19:59;;;;;;;2.88;1.80;;;16.80;99.90;;;;;;4971838;28;20047;-69
2023/04/30 11:22:28;;;;;;;2.35;1.73;;;16.60;99.90;;;;;;4971755;28;20053;-69
2023/04/30 11:25:11;;;;;;;1.88;1.52;;;16.60;99.90;;;;;;4971960;28;20126;-69
2023/04/30 11:27:43;;;;;;;7.13;1.73;;;16.50;99.90;;;;;;4971712;28;20093;-70
2023/04/30 11:30:13;;;;;;;2.03;1.30;;;16.60;99.90;;;;;;4971392;28;20117;-70
2023/04/30 11:32:40;;;;;;;2.13;1.60;;;16.80;99.90;;;;;;4971752;28;20046;-69
2023/04/30 11:35:06;;;;;;;3.22;1.50;;;17.00;99.90;;;;;;4971523;28;20038;-69
2023/04/30 11:37:36;;;;;;;3.47;1.38;;;16.90;99.90;;;;;;4955773;28;20034;-69
2023/04/30 11:40:08;;;;;;;2.88;1.30;;;17.00;99.90;;;;;;4972703;28;20043;-69
2023/04/30 11:42:34;;;;;;;2.22;1.50;;;;;;;;;;4971524;28;20051;-71
2023/04/30 11:45:04;;;;;;;2.28;1.20;;;17.30;99.90;;;;;;4971312;28;20038;-70
2023/04/30 11:47:40;;;;;;;2.20;1.33;;;17.20;99.90;;;;;;4955258;28;20054;-70
2023/04/30 11:50:08;;;;;;;2.97;1.73;;;16.60;99.90;;;;;;4971046;28;20097;-70
2023/04/30 11:52:34;;;;;;;2.50;1.40;;;17.10;99.90;;;;;;4971475;28;20038;-69
2023/04/30 11:54:59;;;;;;;3.20;1.50;;;17.30;99.90;;;;;;4971404;28;20038;-69
2023/04/30 11:57:25;;;;;;;2.40;1.85;;;17.50;99.90;;;;;;4970831;28;20129;-69
2023/04/30 11:59:51;;;;;;;7.40;1.90;;;17.40;99.90;;;;;;4971416;28;20492;-69
2023/04/30 12:02:17;;;;;;;2.40;1.42;;;17.30;99.90;;;;;;4970469;28;20042;-69
2023/04/30 12:04:43;;;;;;;3.75;1.80;;;17.20;99.90;;;;;;4970331;28;20038;-70
2023/04/30 12:07:09;;;;;;;1.92;1.30;;;17.00;99.90;;;;;;4954340;28;20069;-69
2023/04/30 12:09:54;;;;;;;1.40;1.00;;;18.10;99.90;;;;;;4970195;28;20061;-69
2023/04/30 12:12:29;;;;;;;2.67;1.52;;;17.90;99.90;;;;;;4970684;28;20124;-70
2023/04/30 12:14:55;;;;;;;2.25;1.25;;;17.60;99.90;;;;;;4970514;28;20046;-70
2023/04/30 12:17:34;;;;;;;1.10;0.98;;;17.60;99.90;;;;;;4970478;28;20038;-70
2023/04/30 12:20:00;;;;;;;2.35;1.13;;;17.60;99.90;;;;;;4970544;28;20049;-69
2023/04/30 12:22:26;;;;;;;2.08;1.20;;;18.10;99.90;;;;;;4970342;28;20043;-69
2023/04/30 12:24:52;;;;;;;1.80;1.00;;;17.80;99.90;;;;;;4970335;28;20500;-69
2023/04/30 12:27:18;;;;;;;2.75;0.90;;;17.90;99.90;;;;;;4970325;28;20129;-69
2023/04/30 12:29:46;;;;;;;2.42;1.20;;;17.90;99.90;;;;;;4969946;28;20170;-69
2023/04/30 12:32:15;;;;;;;4.70;1.38;;;18.00;99.90;;;;;;4971850;28;20558;-69
2023/04/30 12:34:41;;;;;;;2.58;1.30;;;18.00;99.90;;;;;;4957493;28;20094;-69
2023/04/30 12:37:07;;;;;;;1.23;0.90;;;;;;;;;;4973307;28;20038;-70
2023/04/30 12:39:34;;;;;;;2.88;1.95;;;17.50;99.90;;;;;;4973337;28;20091;-70
2023/04/30 12:42:00;;;;;;;1.63;1.00;;;17.70;99.90;;;;;;4973364;28;20042;-69
2023/04/30 12:44:26;;;;;;;2.30;1.58;;;17.80;99.90;;;;;;4973264;28;20046;-69
2023/04/30 12:46:56;;;;;;;2.95;1.20;;;17.90;99.90;;;;;;4973264;28;20039;-70
2023/04/30 12:49:26;;;;;;;3.85;1.50;;;18.90;99.90;;;;;;4972955;28;20500;-69
2023/04/30 12:51:59;;;;;;;2.75;1.30;;;17.50;99.90;;;;;;4973067;28;20046;-69
2023/04/30 12:54:32;;;;;;;2.75;1.80;;;17.50;99.90;;;;;;4957016;28;20039;-69
2023/04/30 12:57:06;;;;;;;5.25;1.77;;;17.80;99.90;;;;;;4921378;28;1058901;-69
2023/04/30 12:59:35;;;;;;;4.93;1.40;;;17.80;99.90;;;;;;4957936;28;20054;-69
2023/04/30 13:02:13;;;;;;;3.50;1.63;;;18.00;99.90;;;;;;4974136;28;20039;-69
2023/04/30 13:04:40;;;;;;;5.47;1.88;;;18.10;99.90;;;;;;4974290;28;20043;-69
2023/04/30 13:07:06;;;;;;;2.17;1.45;;;18.20;99.90;;;;;;4975330;28;20412;-69
2023/04/30 13:09:33;;;;;;;3.70;1.33;;;18.20;99.90;;;;;;4973792;28;20034;-69
2023/04/30 13:11:59;;;;;;;4.45;1.83;;;18.30;99.90;;;;;;4957787;28;20568;-69
2023/04/30 13:14:26;;;;;;;4.53;1.85;;;19.90;99.90;;;;;;4973839;28;20035;-69
2023/04/30 13:16:52;;;;;;;3.70;1.85;;;18.60;99.90;;;;;;4957850;28;20043;-69
2023/04/30 13:19:18;;;;;;;3.65;1.95;;;18.00;99.90;;;;;;4973762;28;20045;-69
2023/04/30 13:21:44;;;;;;;5.05;2.00;;;17.60;99.90;;;;;;4958058;28;20078;-69
2023/04/30 13:24:09;;;;;;;3.95;2.05;;;17.50;99.90;;;;;;4974081;28;20129;-69
2023/04/30 13:26:35;;;;;;;4.97;1.73;;;18.50;99.90;;;;;;4973620;28;20046;-69